sensor_id;sensor_type;location;lat;lon;timestamp;temperature;humidity
27795;DHT22;15176;50.844;4.412;2023-02-28T00:00:30;9.80;69.80
27795;DHT22;15176;50.844;4.412;2023-02-28T00:02:56;9.70;70.40
27795;DHT22;15176;50.844;4.412;2023-02-28T00:05:24;9.90;72.60
27795;DHT22;15176;50.844;4.412;2023-02-28T00:07:52;9.80;71.60
27795;DHT22;15176;50.844;4.412;2023-02-28T00:10:29;9.80;71.50
27795;DHT22;15176;50.844;4.412;2023-02-28T00:13:03;10.10;73.20
27795;DHT22;15176;50.844;4.412;2023-02-28T00:15:29;10.00;71.40
27795;DHT22;15176;50.844;4.412;2023-02-28T00:17:55;10.20;69.80
27795;DHT22;15176;50.844;4.412;2023-02-28T00:20:21;9.90;69.60
27795;DHT22;15176;50.844;4.412;2023-02-28T00:22:49;9.80;71.20
27795;DHT22;15176;50.844;4.412;2023-02-28T00:25:18;9.50;70.60
27795;DHT22;15176;50.844;4.412;2023-02-28T00:27:44;9.40;71.60
27795;DHT22;15176;50.844;4.412;2023-02-28T00:30:16;9.10;72.20
27795;DHT22;15176;50.844;4.412;2023-02-28T00:32:42;9.00;73.70
27795;DHT22;15176;50.844;4.412;2023-02-28T00:35:09;9.10;73.40
27795;DHT22;15176;50.844;4.412;2023-02-28T00:37:35;9.10;73.80
27795;DHT22;15176;50.844;4.412;2023-02-28T00:40:01;9.10;74.00
27795;DHT22;15176;50.844;4.412;2023-02-28T00:42:28;9.20;74.10
27795;DHT22;15176;50.844;4.412;2023-02-28T00:44:54;9.10;74.30
27795;DHT22;15176;50.844;4.412;2023-02-28T00:47:19;9.20;73.00
27795;DHT22;15176;50.844;4.412;2023-02-28T00:49:45;8.80;73.70
27795;DHT22;15176;50.844;4.412;2023-02-28T00:52:11;8.60;76.80
27795;DHT22;15176;50.844;4.412;2023-02-28T00:54:36;8.60;76.80
27795;DHT22;15176;50.844;4.412;2023-02-28T00:57:02;8.80;77.10
27795;DHT22;15176;50.844;4.412;2023-02-28T00:59:28;9.00;78.50
27795;DHT22;15176;50.844;4.412;2023-02-28T01:01:54;9.20;76.50
27795;DHT22;15176;50.844;4.412;2023-02-28T01:04:20;9.10;77.50
27795;DHT22;15176;50.844;4.412;2023-02-28T01:06:46;9.00;78.00
27795;DHT22;15176;50.844;4.412;2023-02-28T01:09:12;9.20;76.40
27795;DHT22;15176;50.844;4.412;2023-02-28T01:11:38;9.10;79.00
27795;DHT22;15176;50.844;4.412;2023-02-28T01:14:04;9.30;79.70
27795;DHT22;15176;50.844;4.412;2023-02-28T01:16:30;9.60;78.40
27795;DHT22;15176;50.844;4.412;2023-02-28T01:18:56;9.80;77.60
27795;DHT22;15176;50.844;4.412;2023-02-28T01:21:23;9.50;75.70
27795;DHT22;15176;50.844;4.412;2023-02-28T01:23:49;9.80;80.20
27795;DHT22;15176;50.844;4.412;2023-02-28T01:26:20;10.00;77.70
27795;DHT22;15176;50.844;4.412;2023-02-28T01:28:47;9.80;76.40
27795;DHT22;15176;50.844;4.412;2023-02-28T01:31:13;9.80;75.70
27795;DHT22;15176;50.844;4.412;2023-02-28T01:33:41;9.70;76.60
27795;DHT22;15176;50.844;4.412;2023-02-28T01:36:21;9.30;75.50
27795;DHT22;15176;50.844;4.412;2023-02-28T01:38:48;9.20;76.10
27795;DHT22;15176;50.844;4.412;2023-02-28T01:41:28;8.80;76.20
27795;DHT22;15176;50.844;4.412;2023-02-28T01:43:58;8.20;79.20
27795;DHT22;15176;50.844;4.412;2023-02-28T01:46:25;8.10;80.30
27795;DHT22;15176;50.844;4.412;2023-02-28T01:51:45;8.10;81.20
27795;DHT22;15176;50.844;4.412;2023-02-28T01:54:25;7.80;81.90
27795;DHT22;15176;50.844;4.412;2023-02-28T01:57:16;8.10;82.50
27795;DHT22;15176;50.844;4.412;2023-02-28T01:59:54;8.00;83.70
27795;DHT22;15176;50.844;4.412;2023-02-28T02:02:26;8.20;81.50
27795;DHT22;15176;50.844;4.412;2023-02-28T02:05:04;8.00;83.40
27795;DHT22;15176;50.844;4.412;2023-02-28T02:07:37;8.10;84.30
27795;DHT22;15176;50.844;4.412;2023-02-28T02:12:52;8.20;85.20
27795;DHT22;15176;50.844;4.412;2023-02-28T02:17:57;8.20;84.30
27795;DHT22;15176;50.844;4.412;2023-02-28T02:23:45;8.30;82.90
27795;DHT22;15176;50.844;4.412;2023-02-28T02:27:08;8.30;82.70
27795;DHT22;15176;50.844;4.412;2023-02-28T02:35:14;8.80;87.10
27795;DHT22;15176;50.844;4.412;2023-02-28T02:40:48;9.20;83.60
27795;DHT22;15176;50.844;4.412;2023-02-28T02:43:21;9.00;81.50
27795;DHT22;15176;50.844;4.412;2023-02-28T02:45:59;9.00;84.30
27795;DHT22;15176;50.844;4.412;2023-02-28T02:48:32;9.20;84.70
27795;DHT22;15176;50.844;4.412;2023-02-28T02:51:04;9.10;83.80
27795;DHT22;15176;50.844;4.412;2023-02-28T02:53:40;9.20;82.60
27795;DHT22;15176;50.844;4.412;2023-02-28T02:56:07;9.10;78.60
27795;DHT22;15176;50.844;4.412;2023-02-28T02:58:37;9.10;81.50
27795;DHT22;15176;50.844;4.412;2023-02-28T03:01:08;8.70;81.60
27795;DHT22;15176;50.844;4.412;2023-02-28T03:03:35;8.60;82.90
27795;DHT22;15176;50.844;4.412;2023-02-28T03:06:02;8.30;82.30
27795;DHT22;15176;50.844;4.412;2023-02-28T03:08:31;8.70;89.60
27795;DHT22;15176;50.844;4.412;2023-02-28T03:11:01;8.80;86.30
27795;DHT22;15176;50.844;4.412;2023-02-28T03:19:29;9.10;85.10
27795;DHT22;15176;50.844;4.412;2023-02-28T03:22:14;9.10;85.60
27795;DHT22;15176;50.844;4.412;2023-02-28T03:24:52;9.20;87.00
27795;DHT22;15176;50.844;4.412;2023-02-28T03:29:52;9.60;86.60
27795;DHT22;15176;50.844;4.412;2023-02-28T03:32:26;9.60;84.40
27795;DHT22;15176;50.844;4.412;2023-02-28T03:35:03;9.50;84.30
27795;DHT22;15176;50.844;4.412;2023-02-28T03:37:35;9.50;85.70
27795;DHT22;15176;50.844;4.412;2023-02-28T03:40:14;9.60;85.10
27795;DHT22;15176;50.844;4.412;2023-02-28T03:42:46;9.60;82.90
27795;DHT22;15176;50.844;4.412;2023-02-28T03:45:19;9.70;82.80
27795;DHT22;15176;50.844;4.412;2023-02-28T03:47:52;9.60;82.40
27795;DHT22;15176;50.844;4.412;2023-02-28T03:50:25;9.50;83.40
27795;DHT22;15176;50.844;4.412;2023-02-28T03:53:19;9.50;83.60
27795;DHT22;15176;50.844;4.412;2023-02-28T03:58:38;9.70;84.40
27795;DHT22;15176;50.844;4.412;2023-02-28T04:01:10;9.70;82.60
27795;DHT22;15176;50.844;4.412;2023-02-28T04:03:39;9.40;83.90
27795;DHT22;15176;50.844;4.412;2023-02-28T04:06:08;9.40;83.20
27795;DHT22;15176;50.844;4.412;2023-02-28T04:08:38;9.20;83.60
27795;DHT22;15176;50.844;4.412;2023-02-28T04:11:08;8.90;83.00
27795;DHT22;15176;50.844;4.412;2023-02-28T04:13:39;8.80;83.70
27795;DHT22;15176;50.844;4.412;2023-02-28T04:16:08;8.60;82.70
27795;DHT22;15176;50.844;4.412;2023-02-28T04:18:43;8.50;85.20
27795;DHT22;15176;50.844;4.412;2023-02-28T04:21:09;8.60;88.50
27795;DHT22;15176;50.844;4.412;2023-02-28T04:23:35;9.00;89.70
27795;DHT22;15176;50.844;4.412;2023-02-28T04:26:01;9.20;88.20
27795;DHT22;15176;50.844;4.412;2023-02-28T04:28:27;9.20;85.80
27795;DHT22;15176;50.844;4.412;2023-02-28T04:31:01;9.20;86.10
27795;DHT22;15176;50.844;4.412;2023-02-28T04:33:28;9.10;85.40
27795;DHT22;15176;50.844;4.412;2023-02-28T04:36:04;9.30;88.30
27795;DHT22;15176;50.844;4.412;2023-02-28T04:38:38;9.40;84.50
27795;DHT22;15176;50.844;4.412;2023-02-28T04:41:04;9.30;85.40
27795;DHT22;15176;50.844;4.412;2023-02-28T04:43:30;9.10;85.40
27795;DHT22;15176;50.844;4.412;2023-02-28T04:45:58;9.00;85.80
27795;DHT22;15176;50.844;4.412;2023-02-28T04:48:28;9.20;88.10
27795;DHT22;15176;50.844;4.412;2023-02-28T04:50:54;9.20;86.90
27795;DHT22;15176;50.844;4.412;2023-02-28T04:53:20;9.20;87.20
27795;DHT22;15176;50.844;4.412;2023-02-28T04:55:46;9.40;88.60
27795;DHT22;15176;50.844;4.412;2023-02-28T04:58:13;9.40;82.60
27795;DHT22;15176;50.844;4.412;2023-02-28T05:00:39;9.00;84.00
27795;DHT22;15176;50.844;4.412;2023-02-28T05:03:04;9.00;88.40
27795;DHT22;15176;50.844;4.412;2023-02-28T05:05:30;8.90;83.90
27795;DHT22;15176;50.844;4.412;2023-02-28T05:07:56;8.70;88.20
27795;DHT22;15176;50.844;4.412;2023-02-28T05:10:24;8.80;89.40
27795;DHT22;15176;50.844;4.412;2023-02-28T05:12:50;9.00;88.80
27795;DHT22;15176;50.844;4.412;2023-02-28T05:15:16;9.00;87.50
27795;DHT22;15176;50.844;4.412;2023-02-28T05:17:42;8.80;83.90
27795;DHT22;15176;50.844;4.412;2023-02-28T05:20:09;8.80;90.00
27795;DHT22;15176;50.844;4.412;2023-02-28T05:22:42;8.60;85.60
27795;DHT22;15176;50.844;4.412;2023-02-28T05:25:12;8.10;88.30
27795;DHT22;15176;50.844;4.412;2023-02-28T05:27:39;8.30;90.40
27795;DHT22;15176;50.844;4.412;2023-02-28T05:30:09;8.20;88.80
27795;DHT22;15176;50.844;4.412;2023-02-28T05:32:39;8.20;90.00
27795;DHT22;15176;50.844;4.412;2023-02-28T05:35:10;8.10;89.70
27795;DHT22;15176;50.844;4.412;2023-02-28T05:37:36;8.00;88.30
27795;DHT22;15176;50.844;4.412;2023-02-28T05:40:03;7.70;91.40
27795;DHT22;15176;50.844;4.412;2023-02-28T05:42:31;8.00;92.00
27795;DHT22;15176;50.844;4.412;2023-02-28T05:44:57;8.90;93.00
27795;DHT22;15176;50.844;4.412;2023-02-28T05:47:23;9.20;88.70
27795;DHT22;15176;50.844;4.412;2023-02-28T05:49:48;9.20;89.10
27795;DHT22;15176;50.844;4.412;2023-02-28T05:52:14;9.10;89.50
27795;DHT22;15176;50.844;4.412;2023-02-28T05:54:40;9.40;85.90
27795;DHT22;15176;50.844;4.412;2023-02-28T05:57:06;9.70;89.10
27795;DHT22;15176;50.844;4.412;2023-02-28T05:59:35;10.00;86.90
27795;DHT22;15176;50.844;4.412;2023-02-28T06:02:06;10.20;83.10
27795;DHT22;15176;50.844;4.412;2023-02-28T06:04:31;9.90;81.70
27795;DHT22;15176;50.844;4.412;2023-02-28T06:06:57;9.60;86.40
27795;DHT22;15176;50.844;4.412;2023-02-28T06:09:23;9.90;86.00
27795;DHT22;15176;50.844;4.412;2023-02-28T06:11:50;9.80;85.80
27795;DHT22;15176;50.844;4.412;2023-02-28T06:14:19;10.10;85.00
27795;DHT22;15176;50.844;4.412;2023-02-28T06:16:47;10.40;81.50
27795;DHT22;15176;50.844;4.412;2023-02-28T06:19:13;10.50;82.90
27795;DHT22;15176;50.844;4.412;2023-02-28T06:21:40;10.70;82.50
27795;DHT22;15176;50.844;4.412;2023-02-28T06:24:06;10.50;78.00
27795;DHT22;15176;50.844;4.412;2023-02-28T06:26:32;9.70;82.60
27795;DHT22;15176;50.844;4.412;2023-02-28T06:28:59;10.10;86.80
27795;DHT22;15176;50.844;4.412;2023-02-28T06:31:26;10.00;79.20
27795;DHT22;15176;50.844;4.412;2023-02-28T06:33:52;10.10;81.70
27795;DHT22;15176;50.844;4.412;2023-02-28T06:36:18;10.20;78.70
27795;DHT22;15176;50.844;4.412;2023-02-28T06:38:45;10.50;81.80
27795;DHT22;15176;50.844;4.412;2023-02-28T06:41:11;10.70;81.30
27795;DHT22;15176;50.844;4.412;2023-02-28T06:43:39;10.70;78.30
27795;DHT22;15176;50.844;4.412;2023-02-28T06:46:08;10.90;82.90
27795;DHT22;15176;50.844;4.412;2023-02-28T06:48:34;11.40;79.10
27795;DHT22;15176;50.844;4.412;2023-02-28T06:51:12;11.50;76.10
27795;DHT22;15176;50.844;4.412;2023-02-28T06:53:38;11.50;75.20
27795;DHT22;15176;50.844;4.412;2023-02-28T06:56:10;10.90;75.00
27795;DHT22;15176;50.844;4.412;2023-02-28T06:58:37;10.80;77.50
27795;DHT22;15176;50.844;4.412;2023-02-28T07:01:04;10.50;76.60
27795;DHT22;15176;50.844;4.412;2023-02-28T07:03:31;10.60;79.80
27795;DHT22;15176;50.844;4.412;2023-02-28T07:05:57;10.90;81.20
27795;DHT22;15176;50.844;4.412;2023-02-28T07:08:25;11.00;75.70
27795;DHT22;15176;50.844;4.412;2023-02-28T07:10:55;11.50;76.00
27795;DHT22;15176;50.844;4.412;2023-02-28T07:13:22;10.80;79.80
27795;DHT22;15176;50.844;4.412;2023-02-28T07:15:58;11.00;79.60
27795;DHT22;15176;50.844;4.412;2023-02-28T07:18:24;11.00;76.50
27795;DHT22;15176;50.844;4.412;2023-02-28T07:20:51;10.90;78.10
27795;DHT22;15176;50.844;4.412;2023-02-28T07:23:17;11.30;78.40
27795;DHT22;15176;50.844;4.412;2023-02-28T07:25:56;11.80;82.80
27795;DHT22;15176;50.844;4.412;2023-02-28T07:28:22;11.90;73.80
27795;DHT22;15176;50.844;4.412;2023-02-28T07:30:48;11.80;72.10
27795;DHT22;15176;50.844;4.412;2023-02-28T07:33:17;11.80;75.10
27795;DHT22;15176;50.844;4.412;2023-02-28T07:35:43;11.70;71.10
27795;DHT22;15176;50.844;4.412;2023-02-28T07:38:10;11.60;71.40
27795;DHT22;15176;50.844;4.412;2023-02-28T07:40:39;12.00;75.00
27795;DHT22;15176;50.844;4.412;2023-02-28T07:43:05;12.00;72.20
27795;DHT22;15176;50.844;4.412;2023-02-28T07:45:31;11.90;70.90
27795;DHT22;15176;50.844;4.412;2023-02-28T07:48:00;12.10;72.40
27795;DHT22;15176;50.844;4.412;2023-02-28T07:50:26;12.50;72.80
27795;DHT22;15176;50.844;4.412;2023-02-28T07:52:57;12.60;69.90
27795;DHT22;15176;50.844;4.412;2023-02-28T07:55:23;12.60;67.80
27795;DHT22;15176;50.844;4.412;2023-02-28T07:57:49;12.50;68.60
27795;DHT22;15176;50.844;4.412;2023-02-28T08:03:40;12.20;70.80
27795;DHT22;15176;50.844;4.412;2023-02-28T08:06:07;12.80;73.10
27795;DHT22;15176;50.844;4.412;2023-02-28T08:08:41;13.20;68.50
27795;DHT22;15176;50.844;4.412;2023-02-28T08:11:07;12.40;59.90
27795;DHT22;15176;50.844;4.412;2023-02-28T08:13:35;11.50;69.80
27795;DHT22;15176;50.844;4.412;2023-02-28T08:16:04;11.20;66.30
27795;DHT22;15176;50.844;4.412;2023-02-28T08:18:30;10.40;67.90
27795;DHT22;15176;50.844;4.412;2023-02-28T08:21:07;10.10;69.90
27795;DHT22;15176;50.844;4.412;2023-02-28T08:23:33;10.30;72.20
27795;DHT22;15176;50.844;4.412;2023-02-28T08:26:05;10.60;69.70
27795;DHT22;15176;50.844;4.412;2023-02-28T08:28:43;10.70;68.00
27795;DHT22;15176;50.844;4.412;2023-02-28T08:31:12;11.00;68.30
27795;DHT22;15176;50.844;4.412;2023-02-28T08:33:42;11.70;68.10
27795;DHT22;15176;50.844;4.412;2023-02-28T08:36:12;11.70;63.80
27795;DHT22;15176;50.844;4.412;2023-02-28T08:38:39;12.70;64.60
27795;DHT22;15176;50.844;4.412;2023-02-28T08:41:07;12.50;59.00
27795;DHT22;15176;50.844;4.412;2023-02-28T08:43:35;13.20;61.40
27795;DHT22;15176;50.844;4.412;2023-02-28T08:46:02;13.20;59.80
27795;DHT22;15176;50.844;4.412;2023-02-28T08:48:31;13.00;57.30
27795;DHT22;15176;50.844;4.412;2023-02-28T08:51:02;13.70;57.60
27795;DHT22;15176;50.844;4.412;2023-02-28T08:53:28;14.00;55.40
27795;DHT22;15176;50.844;4.412;2023-02-28T08:55:59;14.90;54.30
27795;DHT22;15176;50.844;4.412;2023-02-28T08:58:25;15.70;53.00
27795;DHT22;15176;50.844;4.412;2023-02-28T09:00:57;15.80;49.00
27795;DHT22;15176;50.844;4.412;2023-02-28T09:03:27;16.20;49.80
27795;DHT22;15176;50.844;4.412;2023-02-28T09:05:58;17.00;50.40
27795;DHT22;15176;50.844;4.412;2023-02-28T09:08:42;17.50;48.00
27795;DHT22;15176;50.844;4.412;2023-02-28T09:11:09;17.60;46.10
27795;DHT22;15176;50.844;4.412;2023-02-28T09:13:35;17.20;45.50
27795;DHT22;15176;50.844;4.412;2023-02-28T09:16:03;16.30;44.80
27795;DHT22;15176;50.844;4.412;2023-02-28T09:18:29;15.60;45.60
27795;DHT22;15176;50.844;4.412;2023-02-28T09:20:56;16.10;46.10
27795;DHT22;15176;50.844;4.412;2023-02-28T09:23:23;17.10;45.70
27795;DHT22;15176;50.844;4.412;2023-02-28T09:25:51;17.00;43.50
27795;DHT22;15176;50.844;4.412;2023-02-28T09:28:18;16.70;42.40
27795;DHT22;15176;50.844;4.412;2023-02-28T09:30:46;16.60;43.70
27795;DHT22;15176;50.844;4.412;2023-02-28T09:33:14;17.30;43.10
27795;DHT22;15176;50.844;4.412;2023-02-28T09:35:40;17.30;41.00
27795;DHT22;15176;50.844;4.412;2023-02-28T09:38:06;17.10;42.70
27795;DHT22;15176;50.844;4.412;2023-02-28T09:40:52;16.60;42.30
27795;DHT22;15176;50.844;4.412;2023-02-28T09:43:25;17.30;45.30
27795;DHT22;15176;50.844;4.412;2023-02-28T09:48:35;18.00;39.60
27795;DHT22;15176;50.844;4.412;2023-02-28T09:53:49;19.70;40.20
27795;DHT22;15176;50.844;4.412;2023-02-28T09:56:33;20.30;36.30
27795;DHT22;15176;50.844;4.412;2023-02-28T09:59:10;19.50;35.00
27795;DHT22;15176;50.844;4.412;2023-02-28T10:04:46;18.00;36.70
27795;DHT22;15176;50.844;4.412;2023-02-28T10:10:42;17.80;39.50
27795;DHT22;15176;50.844;4.412;2023-02-28T10:13:33;17.60;37.80
27795;DHT22;15176;50.844;4.412;2023-02-28T10:16:20;17.50;37.80
27795;DHT22;15176;50.844;4.412;2023-02-28T10:19:02;17.40;38.80
27795;DHT22;15176;50.844;4.412;2023-02-28T10:21:38;17.60;37.70
27795;DHT22;15176;50.844;4.412;2023-02-28T10:24:23;18.10;37.10
27795;DHT22;15176;50.844;4.412;2023-02-28T10:26:58;18.80;37.70
27795;DHT22;15176;50.844;4.412;2023-02-28T10:29:26;19.00;35.00
27795;DHT22;15176;50.844;4.412;2023-02-28T10:32:01;18.80;35.10
27795;DHT22;15176;50.844;4.412;2023-02-28T10:34:28;18.90;34.60
27795;DHT22;15176;50.844;4.412;2023-02-28T10:36:55;18.70;34.20
27795;DHT22;15176;50.844;4.412;2023-02-28T10:39:37;18.70;34.40
27795;DHT22;15176;50.844;4.412;2023-02-28T10:42:04;19.40;33.50
27795;DHT22;15176;50.844;4.412;2023-02-28T10:44:30;19.20;34.50
27795;DHT22;15176;50.844;4.412;2023-02-28T10:46:57;19.10;34.20
27795;DHT22;15176;50.844;4.412;2023-02-28T10:49:26;19.30;33.90
27795;DHT22;15176;50.844;4.412;2023-02-28T10:51:59;17.70;33.40
27795;DHT22;15176;50.844;4.412;2023-02-28T10:54:34;18.00;35.40
27795;DHT22;15176;50.844;4.412;2023-02-28T10:57:21;18.60;34.00
27795;DHT22;15176;50.844;4.412;2023-02-28T11:00:17;18.50;33.60
27795;DHT22;15176;50.844;4.412;2023-02-28T11:02:38;19.00;33.50
27795;DHT22;15176;50.844;4.412;2023-02-28T11:05:28;19.40;33.90
27795;DHT22;15176;50.844;4.412;2023-02-28T11:08:15;19.50;34.10
27795;DHT22;15176;50.844;4.412;2023-02-28T11:10:47;18.10;32.30
27795;DHT22;15176;50.844;4.412;2023-02-28T11:13:21;17.70;34.30
27795;DHT22;15176;50.844;4.412;2023-02-28T11:15:53;17.60;33.70
27795;DHT22;15176;50.844;4.412;2023-02-28T11:18:36;17.00;34.40
27795;DHT22;15176;50.844;4.412;2023-02-28T11:21:03;17.20;37.50
27795;DHT22;15176;50.844;4.412;2023-02-28T11:23:31;18.40;35.60
27795;DHT22;15176;50.844;4.412;2023-02-28T11:26:03;19.10;32.90
27795;DHT22;15176;50.844;4.412;2023-02-28T11:28:31;18.70;33.50
27795;DHT22;15176;50.844;4.412;2023-02-28T11:33:28;17.80;34.60
27795;DHT22;15176;50.844;4.412;2023-02-28T11:39:11;18.80;34.30
27795;DHT22;15176;50.844;4.412;2023-02-28T11:44:12;16.70;34.20
27795;DHT22;15176;50.844;4.412;2023-02-28T11:53:01;16.90;36.00
27795;DHT22;15176;50.844;4.412;2023-02-28T11:55:49;17.40;36.90
27795;DHT22;15176;50.844;4.412;2023-02-28T12:04:01;17.50;35.00
27795;DHT22;15176;50.844;4.412;2023-02-28T12:09:47;16.40;35.20
27795;DHT22;15176;50.844;4.412;2023-02-28T12:12:34;16.90;35.20
27795;DHT22;15176;50.844;4.412;2023-02-28T12:25:47;16.20;36.50
27795;DHT22;15176;50.844;4.412;2023-02-28T12:28:23;15.90;35.20
27795;DHT22;15176;50.844;4.412;2023-02-28T12:31:01;16.40;35.80
27795;DHT22;15176;50.844;4.412;2023-02-28T12:33:45;16.90;34.60
27795;DHT22;15176;50.844;4.412;2023-02-28T12:36:22;17.30;35.00
27795;DHT22;15176;50.844;4.412;2023-02-28T12:39:01;17.40;34.80
27795;DHT22;15176;50.844;4.412;2023-02-28T12:41:40;17.20;33.90
27795;DHT22;15176;50.844;4.412;2023-02-28T12:47:05;17.00;35.20
27795;DHT22;15176;50.844;4.412;2023-02-28T12:49:44;17.60;33.60
27795;DHT22;15176;50.844;4.412;2023-02-28T12:52:13;17.70;33.50
27795;DHT22;15176;50.844;4.412;2023-02-28T12:54:49;17.50;32.80
27795;DHT22;15176;50.844;4.412;2023-02-28T12:57:48;17.40;33.40
27795;DHT22;15176;50.844;4.412;2023-02-28T13:00:35;17.80;34.00
27795;DHT22;15176;50.844;4.412;2023-02-28T13:06:18;17.20;33.10
27795;DHT22;15176;50.844;4.412;2023-02-28T13:09:15;16.80;33.20
27795;DHT22;15176;50.844;4.412;2023-02-28T13:11:45;16.40;34.10
27795;DHT22;15176;50.844;4.412;2023-02-28T13:14:25;16.30;33.80
27795;DHT22;15176;50.844;4.412;2023-02-28T13:19:46;16.80;35.40
27795;DHT22;15176;50.844;4.412;2023-02-28T13:27:50;17.00;33.80
27795;DHT22;15176;50.844;4.412;2023-02-28T13:44:12;16.90;34.60
27795;DHT22;15176;50.844;4.412;2023-02-28T13:52:17;17.20;32.80
27795;DHT22;15176;50.844;4.412;2023-02-28T14:03:54;17.20;33.10
27795;DHT22;15176;50.844;4.412;2023-02-28T14:06:23;16.90;33.70
27795;DHT22;15176;50.844;4.412;2023-02-28T14:11:39;15.50;35.10
27795;DHT22;15176;50.844;4.412;2023-02-28T14:14:09;15.40;36.20
27795;DHT22;15176;50.844;4.412;2023-02-28T14:16:39;15.30;35.50
27795;DHT22;15176;50.844;4.412;2023-02-28T14:19:17;15.20;36.50
27795;DHT22;15176;50.844;4.412;2023-02-28T14:30:15;15.00;36.20
27795;DHT22;15176;50.844;4.412;2023-02-28T14:33:16;14.30;37.60
27795;DHT22;15176;50.844;4.412;2023-02-28T14:36:08;13.90;38.70
27795;DHT22;15176;50.844;4.412;2023-02-28T14:41:45;14.60;38.30
27795;DHT22;15176;50.844;4.412;2023-02-28T14:44:24;14.90;37.10
27795;DHT22;15176;50.844;4.412;2023-02-28T14:46:56;14.80;36.90
27795;DHT22;15176;50.844;4.412;2023-02-28T14:49:29;15.00;37.70
27795;DHT22;15176;50.844;4.412;2023-02-28T14:54:55;15.40;36.60
27795;DHT22;15176;50.844;4.412;2023-02-28T14:57:31;15.00;36.60
27795;DHT22;15176;50.844;4.412;2023-02-28T15:00:11;15.20;37.80
27795;DHT22;15176;50.844;4.412;2023-02-28T15:02:45;15.10;36.20
27795;DHT22;15176;50.844;4.412;2023-02-28T15:05:25;14.70;37.10
27795;DHT22;15176;50.844;4.412;2023-02-28T15:08:16;14.20;38.60
27795;DHT22;15176;50.844;4.412;2023-02-28T15:10:53;14.30;38.70
27795;DHT22;15176;50.844;4.412;2023-02-28T15:13:20;14.20;38.00
27795;DHT22;15176;50.844;4.412;2023-02-28T15:18:57;14.70;38.70
27795;DHT22;15176;50.844;4.412;2023-02-28T15:21:36;14.80;38.50
27795;DHT22;15176;50.844;4.412;2023-02-28T15:24:07;14.70;37.70
27795;DHT22;15176;50.844;4.412;2023-02-28T15:26:48;14.70;37.60
27795;DHT22;15176;50.844;4.412;2023-02-28T15:29:20;14.70;37.90
27795;DHT22;15176;50.844;4.412;2023-02-28T15:31:56;14.30;37.60
27795;DHT22;15176;50.844;4.412;2023-02-28T15:34:38;13.60;39.00
27795;DHT22;15176;50.844;4.412;2023-02-28T15:37:33;13.70;40.60
27795;DHT22;15176;50.844;4.412;2023-02-28T15:40:22;13.70;40.10
27795;DHT22;15176;50.844;4.412;2023-02-28T15:45:30;13.70;40.00
27795;DHT22;15176;50.844;4.412;2023-02-28T15:47:58;13.50;39.60
27795;DHT22;15176;50.844;4.412;2023-02-28T15:53:30;13.60;40.60
27795;DHT22;15176;50.844;4.412;2023-02-28T15:56:20;13.40;40.40
27795;DHT22;15176;50.844;4.412;2023-02-28T15:59:24;13.30;41.70
27795;DHT22;15176;50.844;4.412;2023-02-28T16:05:13;12.80;41.20
27795;DHT22;15176;50.844;4.412;2023-02-28T16:07:56;12.90;42.50
27795;DHT22;15176;50.844;4.412;2023-02-28T16:10:23;12.50;41.00
27795;DHT22;15176;50.844;4.412;2023-02-28T16:12:53;12.70;44.80
27795;DHT22;15176;50.844;4.412;2023-02-28T16:15:22;12.90;42.00
27795;DHT22;15176;50.844;4.412;2023-02-28T16:17:50;13.20;41.00
27795;DHT22;15176;50.844;4.412;2023-02-28T16:20:19;12.80;41.20
27795;DHT22;15176;50.844;4.412;2023-02-28T16:22:45;12.40;41.60
27795;DHT22;15176;50.844;4.412;2023-02-28T16:25:13;11.50;43.20
27795;DHT22;15176;50.844;4.412;2023-02-28T16:27:39;11.60;44.50
27795;DHT22;15176;50.844;4.412;2023-02-28T16:30:06;11.60;45.10
27795;DHT22;15176;50.844;4.412;2023-02-28T16:32:34;11.90;46.30
27795;DHT22;15176;50.844;4.412;2023-02-28T16:35:02;12.80;45.20
27795;DHT22;15176;50.844;4.412;2023-02-28T16:37:28;12.40;45.60
27795;DHT22;15176;50.844;4.412;2023-02-28T16:39:54;12.50;43.40
27795;DHT22;15176;50.844;4.412;2023-02-28T16:42:28;12.60;42.50
27795;DHT22;15176;50.844;4.412;2023-02-28T16:44:56;12.40;42.60
27795;DHT22;15176;50.844;4.412;2023-02-28T16:47:23;12.20;42.50
27795;DHT22;15176;50.844;4.412;2023-02-28T16:49:52;11.90;45.80
27795;DHT22;15176;50.844;4.412;2023-02-28T16:52:18;12.20;44.30
27795;DHT22;15176;50.844;4.412;2023-02-28T16:54:43;11.90;43.30
27795;DHT22;15176;50.844;4.412;2023-02-28T16:57:20;12.00;44.00
27795;DHT22;15176;50.844;4.412;2023-02-28T16:59:47;11.60;45.10
27795;DHT22;15176;50.844;4.412;2023-02-28T17:02:15;12.20;45.60
27795;DHT22;15176;50.844;4.412;2023-02-28T17:04:42;12.70;45.70
27795;DHT22;15176;50.844;4.412;2023-02-28T17:07:13;12.70;44.10
27795;DHT22;15176;50.844;4.412;2023-02-28T17:09:39;12.90;42.70
27795;DHT22;15176;50.844;4.412;2023-02-28T17:12:06;12.80;42.80
27795;DHT22;15176;50.844;4.412;2023-02-28T17:14:32;12.20;43.10
27795;DHT22;15176;50.844;4.412;2023-02-28T17:16:58;12.10;44.30
27795;DHT22;15176;50.844;4.412;2023-02-28T17:19:24;12.20;44.70
27795;DHT22;15176;50.844;4.412;2023-02-28T17:21:49;12.10;46.00
27795;DHT22;15176;50.844;4.412;2023-02-28T17:24:15;11.80;44.50
27795;DHT22;15176;50.844;4.412;2023-02-28T17:26:42;12.00;45.40
27795;DHT22;15176;50.844;4.412;2023-02-28T17:29:21;12.50;45.10
27795;DHT22;15176;50.844;4.412;2023-02-28T17:31:47;12.80;44.30
27795;DHT22;15176;50.844;4.412;2023-02-28T17:34:13;13.30;44.70
27795;DHT22;15176;50.844;4.412;2023-02-28T17:36:44;13.20;42.70
27795;DHT22;15176;50.844;4.412;2023-02-28T17:39:12;13.20;44.10
27795;DHT22;15176;50.844;4.412;2023-02-28T17:41:40;13.60;43.50
27795;DHT22;15176;50.844;4.412;2023-02-28T17:44:09;13.80;42.50
27795;DHT22;15176;50.844;4.412;2023-02-28T17:46:35;14.10;44.30
27795;DHT22;15176;50.844;4.412;2023-02-28T17:49:01;14.10;43.10
27795;DHT22;15176;50.844;4.412;2023-02-28T17:51:27;14.20;42.40
27795;DHT22;15176;50.844;4.412;2023-02-28T17:53:54;14.30;43.10
27795;DHT22;15176;50.844;4.412;2023-02-28T17:56:23;14.10;41.80
27795;DHT22;15176;50.844;4.412;2023-02-28T17:58:49;14.00;42.50
27795;DHT22;15176;50.844;4.412;2023-02-28T18:01:16;13.70;42.10
27795;DHT22;15176;50.844;4.412;2023-02-28T18:03:42;13.80;43.00
27795;DHT22;15176;50.844;4.412;2023-02-28T18:06:18;13.70;43.90
27795;DHT22;15176;50.844;4.412;2023-02-28T18:08:51;13.70;44.80
27795;DHT22;15176;50.844;4.412;2023-02-28T18:11:18;14.20;45.30
27795;DHT22;15176;50.844;4.412;2023-02-28T18:14:03;14.30;43.20
27795;DHT22;15176;50.844;4.412;2023-02-28T18:16:29;14.00;42.40
27795;DHT22;15176;50.844;4.412;2023-02-28T18:18:55;14.30;43.70
27795;DHT22;15176;50.844;4.412;2023-02-28T18:21:20;14.40;43.40
27795;DHT22;15176;50.844;4.412;2023-02-28T18:23:46;14.30;42.50
27795;DHT22;15176;50.844;4.412;2023-02-28T18:26:17;14.30;42.70
27795;DHT22;15176;50.844;4.412;2023-02-28T18:28:43;14.00;42.10
27795;DHT22;15176;50.844;4.412;2023-02-28T18:31:14;13.80;42.30